KJSO

Cherokee County Airport

Jacksonville, Texas, USA
METAR KJSO 181635Z AUTO 00000KT 2 1/2SM BR OVC002 11/11 A3024 RMK AO2 T01150115
Observed Flight Rules
Dec-18 @ 16:35 UTC (5 minutes ago) Instrument Flight Rules
Wind Visibility Clouds Conditions
Calm 2 1/2 miles
  • Overcast at 200' AGL
  • Mist
Temperatures Readings
Current 12°C / 54°F
Dewpoint 12°C / 54°F
Humidity 100%
Altimeter 30.24" Hg
Pressure 1024 hPa
Elevation 206
METAR KJSO 181635Z AUTO 00000KT 2 1/2SM BR OVC002 11/11 A3024 RMK AO2 T01150115
Observed Flight Rules
Dec-18 @ 16:35 UTC
(5 minutes ago)
LIFR
Wind Visibility
Calm 2 1/2 miles
Clouds
  • Overcast at 200' AGL
Conditions
  • Mist
Temperature Dewpoint
12°C / 54°F 12°C / 54°F
Humidity Altimeter Pressure
100% 30.24" Hg 1024 hPa